Terminal Aerodrome Forecast
Issued by NWS Upton, NY

Home | Current Version | Previous Version | Text Only | Print | Product List | Glossary On
Versions: 1 2 3 4 5 6 7 8 9 10 11 12 13 14 15 16 17 18 19 20 21 22 23 24 25 26 27 28 29 30 31
000
FTUS41 KOKX 302331
TAFJFK
TAF
KJFK 302331Z 3100/0106 19011KT P6SM FEW050 SCT080 BKN250
     FM310200 21010KT P6SM BKN100
     FM310400 23008KT P6SM BKN100
     FM311100 25008KT P6SM SCT100 BKN250
     FM311600 24013KT P6SM FEW050 BKN250
     FM311900 24016G21KT P6SM FEW050 BKN250
     FM010100 26010KT P6SM SCT250=

USA.gov is the U.S. government's official web portal to all federal, state and local government web resources and services.